sensor_id;sensor_type;location;lat;lon;timestamp;pressure;altitude;pressure_sealevel;temperature;humidity
72677;BME280;60755;51.374;10.662;2022-07-18T00:01:14;98174.38;;;12.06;64.34
72677;BME280;60755;51.374;10.662;2022-07-18T00:03:45;98186.66;;;11.94;63.89
72677;BME280;60755;51.374;10.662;2022-07-18T00:06:12;98187.44;;;11.94;63.84
72677;BME280;60755;51.374;10.662;2022-07-18T00:08:38;98184.31;;;11.86;64.82
72677;BME280;60755;51.374;10.662;2022-07-18T00:11:06;98184.91;;;12.06;64.14
72677;BME280;60755;51.374;10.662;2022-07-18T00:13:32;98185.47;;;12.08;64.02
72677;BME280;60755;51.374;10.662;2022-07-18T00:15:58;98182.63;;;11.91;64.18
72677;BME280;60755;51.374;10.662;2022-07-18T00:18:25;98181.53;;;11.81;65.21
72677;BME280;60755;51.374;10.662;2022-07-18T00:20:51;98179.97;;;11.73;64.82
72677;BME280;60755;51.374;10.662;2022-07-18T00:23:18;98175.06;;;11.76;64.14
72677;BME280;60755;51.374;10.662;2022-07-18T00:25:45;98181.13;;;11.77;64.61
72677;BME280;60755;51.374;10.662;2022-07-18T00:28:12;98182.00;;;11.71;65.99
72677;BME280;60755;51.374;10.662;2022-07-18T00:30:39;98174.19;;;11.64;65.52
72677;BME280;60755;51.374;10.662;2022-07-18T00:33:06;98176.50;;;11.54;65.15
72677;BME280;60755;51.374;10.662;2022-07-18T00:35:33;98167.03;;;11.46;65.67
72677;BME280;60755;51.374;10.662;2022-07-18T00:37:59;98171.50;;;11.46;65.86
72677;BME280;60755;51.374;10.662;2022-07-18T00:40:26;98180.66;;;11.43;66.26
72677;BME280;60755;51.374;10.662;2022-07-18T00:42:53;98175.88;;;11.34;66.70
72677;BME280;60755;51.374;10.662;2022-07-18T00:45:21;98173.81;;;11.36;65.78
72677;BME280;60755;51.374;10.662;2022-07-18T00:47:48;98178.94;;;11.31;66.54
72677;BME280;60755;51.374;10.662;2022-07-18T00:50:17;98175.81;;;11.40;65.38
72677;BME280;60755;51.374;10.662;2022-07-18T00:52:44;98178.28;;;11.35;67.32
72677;BME280;60755;51.374;10.662;2022-07-18T00:55:11;98165.75;;;11.31;66.38
72677;BME280;60755;51.374;10.662;2022-07-18T00:57:39;98176.38;;;11.24;66.24
72677;BME280;60755;51.374;10.662;2022-07-18T01:00:09;98179.53;;;11.33;65.63
72677;BME280;60755;51.374;10.662;2022-07-18T01:02:56;98176.28;;;11.31;65.75
72677;BME280;60755;51.374;10.662;2022-07-18T01:05:22;98174.31;;;11.26;67.10
72677;BME280;60755;51.374;10.662;2022-07-18T01:07:49;98183.88;;;11.20;66.99
72677;BME280;60755;51.374;10.662;2022-07-18T01:10:16;98184.47;;;11.23;65.91
72677;BME280;60755;51.374;10.662;2022-07-18T01:12:43;98186.50;;;11.20;65.87
72677;BME280;60755;51.374;10.662;2022-07-18T01:15:10;98182.72;;;11.16;66.20
72677;BME280;60755;51.374;10.662;2022-07-18T01:17:37;98183.91;;;11.14;67.04
72677;BME280;60755;51.374;10.662;2022-07-18T01:20:06;98182.97;;;11.08;67.25
72677;BME280;60755;51.374;10.662;2022-07-18T01:22:33;98187.03;;;11.04;68.85
72677;BME280;60755;51.374;10.662;2022-07-18T01:25:00;98178.81;;;10.94;68.54
72677;BME280;60755;51.374;10.662;2022-07-18T01:27:26;98180.66;;;10.93;67.05
72677;BME280;60755;51.374;10.662;2022-07-18T01:29:53;98183.66;;;10.97;67.04
72677;BME280;60755;51.374;10.662;2022-07-18T01:32:20;98178.81;;;10.94;69.02
72677;BME280;60755;51.374;10.662;2022-07-18T01:34:47;98174.59;;;10.93;67.70
72677;BME280;60755;51.374;10.662;2022-07-18T01:37:13;98174.03;;;10.84;67.82
72677;BME280;60755;51.374;10.662;2022-07-18T01:39:42;98173.25;;;10.84;67.93
72677;BME280;60755;51.374;10.662;2022-07-18T01:42:10;98170.22;;;10.80;67.06
72677;BME280;60755;51.374;10.662;2022-07-18T01:44:38;98173.06;;;10.79;66.74
72677;BME280;60755;51.374;10.662;2022-07-18T01:47:06;98175.47;;;10.80;68.59
72677;BME280;60755;51.374;10.662;2022-07-18T01:49:34;98171.63;;;10.83;67.69
72677;BME280;60755;51.374;10.662;2022-07-18T01:52:01;98167.81;;;10.79;67.97
72677;BME280;60755;51.374;10.662;2022-07-18T01:54:29;98169.47;;;10.67;70.29
72677;BME280;60755;51.374;10.662;2022-07-18T01:56:58;98163.06;;;10.62;68.08
72677;BME280;60755;51.374;10.662;2022-07-18T01:59:25;98152.53;;;10.62;68.00
72677;BME280;60755;51.374;10.662;2022-07-18T02:01:52;98153.53;;;10.68;68.98
72677;BME280;60755;51.374;10.662;2022-07-18T02:04:18;98145.47;;;10.63;67.91
72677;BME280;60755;51.374;10.662;2022-07-18T02:06:45;98139.63;;;10.61;67.81
72677;BME280;60755;51.374;10.662;2022-07-18T02:09:11;98142.84;;;10.63;68.64
72677;BME280;60755;51.374;10.662;2022-07-18T02:11:38;98147.28;;;10.62;68.14
72677;BME280;60755;51.374;10.662;2022-07-18T02:14:06;98141.41;;;10.67;69.04
72677;BME280;60755;51.374;10.662;2022-07-18T02:16:33;98138.97;;;10.65;69.34
72677;BME280;60755;51.374;10.662;2022-07-18T02:18:59;98139.44;;;10.56;68.90
72677;BME280;60755;51.374;10.662;2022-07-18T02:21:25;98137.03;;;10.54;67.78
72677;BME280;60755;51.374;10.662;2022-07-18T02:23:52;98148.38;;;10.48;68.74
72677;BME280;60755;51.374;10.662;2022-07-18T02:26:19;98151.41;;;10.52;69.25
72677;BME280;60755;51.374;10.662;2022-07-18T02:28:46;98146.97;;;10.46;69.03
72677;BME280;60755;51.374;10.662;2022-07-18T02:31:13;98155.31;;;10.43;69.07
72677;BME280;60755;51.374;10.662;2022-07-18T02:33:40;98157.19;;;10.29;72.19
72677;BME280;60755;51.374;10.662;2022-07-18T02:36:06;98149.28;;;10.29;72.45
72677;BME280;60755;51.374;10.662;2022-07-18T02:38:33;98147.06;;;10.26;71.09
72677;BME280;60755;51.374;10.662;2022-07-18T02:40:59;98143.47;;;10.27;69.59
72677;BME280;60755;51.374;10.662;2022-07-18T02:43:25;98144.78;;;10.43;68.33
72677;BME280;60755;51.374;10.662;2022-07-18T02:45:52;98143.41;;;10.33;69.39
72677;BME280;60755;51.374;10.662;2022-07-18T02:48:20;98143.41;;;10.33;69.84
72677;BME280;60755;51.374;10.662;2022-07-18T02:50:46;98138.53;;;10.37;68.80
72677;BME280;60755;51.374;10.662;2022-07-18T02:53:13;98146.97;;;10.46;67.98
72677;BME280;60755;51.374;10.662;2022-07-18T02:55:39;98143.47;;;10.27;72.12
72677;BME280;60755;51.374;10.662;2022-07-18T02:58:06;98137.19;;;10.28;69.49
72677;BME280;60755;51.374;10.662;2022-07-18T03:00:32;98138.78;;;10.29;70.08
72677;BME280;60755;51.374;10.662;2022-07-18T03:02:58;98140.59;;;10.22;69.21
72677;BME280;60755;51.374;10.662;2022-07-18T03:05:26;98154.75;;;10.21;69.70
72677;BME280;60755;51.374;10.662;2022-07-18T03:07:52;98155.75;;;10.26;69.19
72677;BME280;60755;51.374;10.662;2022-07-18T03:10:19;98151.69;;;10.37;69.03
72677;BME280;60755;51.374;10.662;2022-07-18T03:12:45;98144.81;;;10.36;69.50
72677;BME280;60755;51.374;10.662;2022-07-18T03:15:11;98140.16;;;10.38;68.43
72677;BME280;60755;51.374;10.662;2022-07-18T03:17:38;98142.19;;;10.36;69.32
72677;BME280;60755;51.374;10.662;2022-07-18T03:20:05;98143.38;;;10.40;68.66
72677;BME280;60755;51.374;10.662;2022-07-18T03:22:33;98137.34;;;10.33;70.38
72677;BME280;60755;51.374;10.662;2022-07-18T03:24:59;98134.50;;;10.34;68.79
72677;BME280;60755;51.374;10.662;2022-07-18T03:27:26;98143.78;;;10.37;69.79
72677;BME280;60755;51.374;10.662;2022-07-18T03:29:52;98138.31;;;10.39;70.09
72677;BME280;60755;51.374;10.662;2022-07-18T03:32:19;98138.44;;;10.50;70.35
72677;BME280;60755;51.374;10.662;2022-07-18T03:34:46;98140.47;;;10.55;68.39
72677;BME280;60755;51.374;10.662;2022-07-18T03:37:12;98141.25;;;10.55;68.33
72677;BME280;60755;51.374;10.662;2022-07-18T03:39:40;98138.38;;;10.63;68.04
72677;BME280;60755;51.374;10.662;2022-07-18T03:42:06;98139.56;;;10.99;67.85
72677;BME280;60755;51.374;10.662;2022-07-18T03:44:33;98130.28;;;11.76;65.42
72677;BME280;60755;51.374;10.662;2022-07-18T03:46:59;98131.31;;;12.72;63.93
72677;BME280;60755;51.374;10.662;2022-07-18T03:49:26;98143.09;;;13.47;62.32
72677;BME280;60755;51.374;10.662;2022-07-18T03:51:52;98135.16;;;13.82;61.16
72677;BME280;60755;51.374;10.662;2022-07-18T03:54:20;98138.47;;;14.29;57.38
72677;BME280;60755;51.374;10.662;2022-07-18T03:56:48;98129.06;;;14.95;56.05
72677;BME280;60755;51.374;10.662;2022-07-18T03:59:14;98131.38;;;15.81;53.71
72677;BME280;60755;51.374;10.662;2022-07-18T04:01:41;98129.53;;;16.79;52.01
72677;BME280;60755;51.374;10.662;2022-07-18T04:04:07;98126.13;;;17.58;49.05
72677;BME280;60755;51.374;10.662;2022-07-18T04:06:33;98128.47;;;17.97;47.00
72677;BME280;60755;51.374;10.662;2022-07-18T04:09:00;98132.47;;;18.04;48.64
72677;BME280;60755;51.374;10.662;2022-07-18T04:11:26;98142.22;;;18.61;47.50
72677;BME280;60755;51.374;10.662;2022-07-18T04:13:55;98138.78;;;19.22;45.20
72677;BME280;60755;51.374;10.662;2022-07-18T04:16:21;98133.78;;;20.10;42.35
72677;BME280;60755;51.374;10.662;2022-07-18T04:18:48;98130.22;;;20.75;42.72
72677;BME280;60755;51.374;10.662;2022-07-18T04:21:15;98131.34;;;21.37;40.58
72677;BME280;60755;51.374;10.662;2022-07-18T04:23:42;98124.97;;;22.04;39.03
72677;BME280;60755;51.374;10.662;2022-07-18T04:26:09;98132.59;;;22.40;38.47
72677;BME280;60755;51.374;10.662;2022-07-18T04:28:35;98121.78;;;22.64;38.46
72677;BME280;60755;51.374;10.662;2022-07-18T04:31:03;98126.31;;;23.48;36.62
72677;BME280;60755;51.374;10.662;2022-07-18T04:33:30;98115.34;;;23.90;35.64
72677;BME280;60755;51.374;10.662;2022-07-18T04:35:56;98113.22;;;24.15;36.08
72677;BME280;60755;51.374;10.662;2022-07-18T04:38:22;98110.75;;;24.77;34.61
72677;BME280;60755;51.374;10.662;2022-07-18T04:40:49;98099.28;;;24.85;33.78
72677;BME280;60755;51.374;10.662;2022-07-18T04:43:15;98101.47;;;25.28;33.22
72677;BME280;60755;51.374;10.662;2022-07-18T04:45:42;98113.47;;;26.01;33.33
72677;BME280;60755;51.374;10.662;2022-07-18T04:48:10;98103.06;;;26.26;31.88
72677;BME280;60755;51.374;10.662;2022-07-18T04:50:36;98107.34;;;26.27;32.04
72677;BME280;60755;51.374;10.662;2022-07-18T04:53:03;98100.06;;;26.53;31.16
72677;BME280;60755;51.374;10.662;2022-07-18T04:55:29;98107.69;;;26.51;33.13
72677;BME280;60755;51.374;10.662;2022-07-18T04:57:56;98101.16;;;26.78;32.80
72677;BME280;60755;51.374;10.662;2022-07-18T05:00:24;98106.94;;;27.41;31.07
72677;BME280;60755;51.374;10.662;2022-07-18T05:02:54;98100.44;;;27.80;30.65
72677;BME280;60755;51.374;10.662;2022-07-18T05:05:24;98098.44;;;27.98;30.40
72677;BME280;60755;51.374;10.662;2022-07-18T05:07:51;98102.34;;;27.79;31.32
72677;BME280;60755;51.374;10.662;2022-07-18T05:10:20;98100.22;;;28.65;29.45
72677;BME280;60755;51.374;10.662;2022-07-18T05:12:49;98109.84;;;28.75;29.19
72677;BME280;60755;51.374;10.662;2022-07-18T05:15:18;98107.53;;;29.31;28.59
72677;BME280;60755;51.374;10.662;2022-07-18T05:17:45;98109.53;;;29.55;28.60
72677;BME280;60755;51.374;10.662;2022-07-18T05:20:13;98105.41;;;29.36;29.58
72677;BME280;60755;51.374;10.662;2022-07-18T05:22:42;98107.50;;;29.88;29.04
72677;BME280;60755;51.374;10.662;2022-07-18T05:25:09;98118.09;;;30.30;27.44
72677;BME280;60755;51.374;10.662;2022-07-18T05:27:36;98117.38;;;30.85;28.07
72677;BME280;60755;51.374;10.662;2022-07-18T05:30:06;98117.13;;;31.66;27.21
72677;BME280;60755;51.374;10.662;2022-07-18T05:32:33;98119.50;;;31.99;27.38
72677;BME280;60755;51.374;10.662;2022-07-18T05:35:00;98109.75;;;31.98;26.74
72677;BME280;60755;51.374;10.662;2022-07-18T05:37:26;98108.78;;;32.06;26.80
72677;BME280;60755;51.374;10.662;2022-07-18T05:39:54;98118.03;;;32.75;25.60
72677;BME280;60755;51.374;10.662;2022-07-18T05:42:21;98116.59;;;32.62;26.61
72677;BME280;60755;51.374;10.662;2022-07-18T05:44:47;98116.31;;;32.67;27.56
72677;BME280;60755;51.374;10.662;2022-07-18T05:47:14;98134.53;;;32.82;27.26
72677;BME280;60755;51.374;10.662;2022-07-18T05:49:40;98130.94;;;32.78;24.86
72677;BME280;60755;51.374;10.662;2022-07-18T05:52:07;98134.34;;;32.37;26.69
72677;BME280;60755;51.374;10.662;2022-07-18T05:54:34;98132.03;;;33.58;24.94
72677;BME280;60755;51.374;10.662;2022-07-18T05:57:01;98125.44;;;34.35;23.81
72677;BME280;60755;51.374;10.662;2022-07-18T05:59:28;98114.63;;;35.10;23.03
72677;BME280;60755;51.374;10.662;2022-07-18T06:01:54;98122.34;;;35.38;22.59
72677;BME280;60755;51.374;10.662;2022-07-18T06:04:21;98119.59;;;35.38;23.28
72677;BME280;60755;51.374;10.662;2022-07-18T06:06:47;98128.84;;;35.63;21.74
72677;BME280;60755;51.374;10.662;2022-07-18T06:09:15;98123.09;;;35.79;22.79
72677;BME280;60755;51.374;10.662;2022-07-18T06:11:42;98120.28;;;36.27;21.85
72677;BME280;60755;51.374;10.662;2022-07-18T06:14:10;98125.25;;;35.55;21.72
72677;BME280;60755;51.374;10.662;2022-07-18T06:16:36;98140.19;;;36.93;20.61
72677;BME280;60755;51.374;10.662;2022-07-18T06:19:03;98125.44;;;37.87;18.71
72677;BME280;60755;51.374;10.662;2022-07-18T06:21:29;98123.84;;;37.43;17.72
72677;BME280;60755;51.374;10.662;2022-07-18T06:23:56;98116.78;;;37.60;17.31
72677;BME280;60755;51.374;10.662;2022-07-18T06:26:22;98126.75;;;34.18;23.84
72677;BME280;60755;51.374;10.662;2022-07-18T06:28:49;98129.13;;;36.72;18.70
72677;BME280;60755;51.374;10.662;2022-07-18T06:31:16;98119.16;;;37.54;19.60
72677;BME280;60755;51.374;10.662;2022-07-18T06:33:43;98122.75;;;35.87;22.58
72677;BME280;60755;51.374;10.662;2022-07-18T06:36:10;98119.84;;;37.01;18.93
72677;BME280;60755;51.374;10.662;2022-07-18T06:38:38;98129.69;;;36.33;19.47
72677;BME280;60755;51.374;10.662;2022-07-18T06:41:05;98131.81;;;36.64;20.94
72677;BME280;60755;51.374;10.662;2022-07-18T06:43:31;98118.25;;;36.96;19.69
72677;BME280;60755;51.374;10.662;2022-07-18T06:45:58;98119.03;;;36.90;20.94
72677;BME280;60755;51.374;10.662;2022-07-18T06:48:26;98121.38;;;36.88;19.47
72677;BME280;60755;51.374;10.662;2022-07-18T06:50:58;98130.88;;;37.37;18.66
72677;BME280;60755;51.374;10.662;2022-07-18T06:53:24;98127.78;;;37.95;19.88
72677;BME280;60755;51.374;10.662;2022-07-18T06:55:50;98120.72;;;37.91;18.36
72677;BME280;60755;51.374;10.662;2022-07-18T06:58:17;98112.84;;;37.75;18.49
72677;BME280;60755;51.374;10.662;2022-07-18T07:00:43;98110.50;;;37.52;18.15
72677;BME280;60755;51.374;10.662;2022-07-18T07:03:10;98117.38;;;38.67;17.28
72677;BME280;60755;51.374;10.662;2022-07-18T07:05:37;98116.63;;;38.56;16.99
72677;BME280;60755;51.374;10.662;2022-07-18T07:08:04;98110.53;;;35.74;20.69
72677;BME280;60755;51.374;10.662;2022-07-18T07:10:31;98115.84;;;36.77;18.02
72677;BME280;60755;51.374;10.662;2022-07-18T07:12:57;98111.66;;;37.22;17.53
72677;BME280;60755;51.374;10.662;2022-07-18T07:15:24;98112.50;;;37.55;16.27
72677;BME280;60755;51.374;10.662;2022-07-18T07:17:51;98112.09;;;37.49;16.47
72677;BME280;60755;51.374;10.662;2022-07-18T07:20:18;98105.41;;;37.33;17.44
72677;BME280;60755;51.374;10.662;2022-07-18T07:22:49;98105.22;;;36.61;18.46
72677;BME280;60755;51.374;10.662;2022-07-18T07:25:17;98102.38;;;36.36;18.39
72677;BME280;60755;51.374;10.662;2022-07-18T07:27:44;98097.59;;;37.63;16.88
72677;BME280;60755;51.374;10.662;2022-07-18T07:30:11;98090.75;;;36.72;17.50
72677;BME280;60755;51.374;10.662;2022-07-18T07:32:39;98086.06;;;36.76;17.30
72677;BME280;60755;51.374;10.662;2022-07-18T07:35:08;98083.66;;;36.56;18.06
72677;BME280;60755;51.374;10.662;2022-07-18T07:37:36;98082.91;;;36.74;17.54
72677;BME280;60755;51.374;10.662;2022-07-18T07:40:05;98078.00;;;34.47;20.31
72677;BME280;60755;51.374;10.662;2022-07-18T07:42:32;98080.06;;;33.25;21.65
72677;BME280;60755;51.374;10.662;2022-07-18T07:44:59;98085.53;;;31.14;23.60
72677;BME280;60755;51.374;10.662;2022-07-18T07:47:26;98085.78;;;29.51;25.18
72677;BME280;60755;51.374;10.662;2022-07-18T07:49:54;98085.03;;;27.80;29.08
72677;BME280;60755;51.374;10.662;2022-07-18T07:52:20;98091.72;;;28.04;28.16
72677;BME280;60755;51.374;10.662;2022-07-18T07:54:48;98085.25;;;27.67;28.32
72677;BME280;60755;51.374;10.662;2022-07-18T07:57:16;98091.19;;;27.43;29.07
72677;BME280;60755;51.374;10.662;2022-07-18T07:59:42;98085.91;;;27.55;29.33
72677;BME280;60755;51.374;10.662;2022-07-18T08:02:09;98083.78;;;27.78;27.80
72677;BME280;60755;51.374;10.662;2022-07-18T08:04:36;98076.69;;;27.09;29.88
72677;BME280;60755;51.374;10.662;2022-07-18T08:07:02;98084.72;;;27.44;29.75
72677;BME280;60755;51.374;10.662;2022-07-18T08:09:29;98080.94;;;27.36;27.90
72677;BME280;60755;51.374;10.662;2022-07-18T08:11:55;98078.91;;;27.63;30.10
72677;BME280;60755;51.374;10.662;2022-07-18T08:14:23;98076.69;;;27.56;27.81
72677;BME280;60755;51.374;10.662;2022-07-18T08:16:49;98080.50;;;27.17;29.42
72677;BME280;60755;51.374;10.662;2022-07-18T08:19:16;98071.53;;;27.33;27.02
72677;BME280;60755;51.374;10.662;2022-07-18T08:21:42;98073.88;;;27.52;28.54
72677;BME280;60755;51.374;10.662;2022-07-18T08:24:09;98077.59;;;27.30;29.79
72677;BME280;60755;51.374;10.662;2022-07-18T08:26:35;98078.31;;;27.48;26.24
72677;BME280;60755;51.374;10.662;2022-07-18T08:29:04;98070.22;;;27.86;29.72
72677;BME280;60755;51.374;10.662;2022-07-18T08:31:32;98076.97;;;28.01;29.88
72677;BME280;60755;51.374;10.662;2022-07-18T08:33:59;98077.47;;;27.95;28.18
72677;BME280;60755;51.374;10.662;2022-07-18T08:36:26;98074.19;;;28.10;28.51
72677;BME280;60755;51.374;10.662;2022-07-18T08:38:53;98075.38;;;28.21;28.83
72677;BME280;60755;51.374;10.662;2022-07-18T08:41:22;98076.97;;;28.22;29.07
72677;BME280;60755;51.374;10.662;2022-07-18T08:43:48;98078.53;;;28.32;28.79
72677;BME280;60755;51.374;10.662;2022-07-18T08:46:20;98081.63;;;28.42;27.99
72677;BME280;60755;51.374;10.662;2022-07-18T08:48:49;98078.78;;;28.39;27.37
72677;BME280;60755;51.374;10.662;2022-07-18T08:51:17;98076.69;;;27.94;28.49
72677;BME280;60755;51.374;10.662;2022-07-18T08:53:46;98073.81;;;27.91;28.17
72677;BME280;60755;51.374;10.662;2022-07-18T08:56:12;98075.78;;;27.81;28.36
72677;BME280;60755;51.374;10.662;2022-07-18T08:58:39;98070.66;;;28.60;27.47
72677;BME280;60755;51.374;10.662;2022-07-18T09:01:06;98072.09;;;28.15;26.58
72677;BME280;60755;51.374;10.662;2022-07-18T09:03:32;98075.34;;;27.79;27.34
72677;BME280;60755;51.374;10.662;2022-07-18T09:06:06;98069.88;;;27.12;29.50
72677;BME280;60755;51.374;10.662;2022-07-18T09:08:33;98077.19;;;27.49;27.99
72677;BME280;60755;51.374;10.662;2022-07-18T09:11:02;98076.38;;;27.57;29.68
72677;BME280;60755;51.374;10.662;2022-07-18T09:13:36;98076.31;;;27.75;29.05
72677;BME280;60755;51.374;10.662;2022-07-18T09:16:05;98073.81;;;27.61;26.43
72677;BME280;60755;51.374;10.662;2022-07-18T09:18:34;98078.13;;;27.15;27.79
72677;BME280;60755;51.374;10.662;2022-07-18T09:21:05;98074.97;;;27.13;28.94
72677;BME280;60755;51.374;10.662;2022-07-18T09:23:34;98080.22;;;27.48;27.48
72677;BME280;60755;51.374;10.662;2022-07-18T09:26:01;98075.44;;;27.15;28.06
72677;BME280;60755;51.374;10.662;2022-07-18T09:28:29;98077.44;;;27.65;26.81
72677;BME280;60755;51.374;10.662;2022-07-18T09:31:17;98073.78;;;27.31;28.73
72677;BME280;60755;51.374;10.662;2022-07-18T09:33:51;98071.94;;;27.53;28.32
72677;BME280;60755;51.374;10.662;2022-07-18T09:36:19;98072.41;;;27.55;27.85
72677;BME280;60755;51.374;10.662;2022-07-18T09:38:45;98068.34;;;26.67;25.80
72677;BME280;60755;51.374;10.662;2022-07-18T09:41:12;98067.97;;;27.12;27.52
72677;BME280;60755;51.374;10.662;2022-07-18T09:43:39;98066.00;;;27.30;27.52
72677;BME280;60755;51.374;10.662;2022-07-18T09:46:06;98063.56;;;27.84;27.15
72677;BME280;60755;51.374;10.662;2022-07-18T09:48:34;98059.03;;;27.67;26.18
72677;BME280;60755;51.374;10.662;2022-07-18T09:51:02;98060.59;;;27.30;27.09
72677;BME280;60755;51.374;10.662;2022-07-18T09:53:32;98066.63;;;27.36;25.99
72677;BME280;60755;51.374;10.662;2022-07-18T09:56:01;98063.59;;;27.37;25.68
72677;BME280;60755;51.374;10.662;2022-07-18T09:58:30;98065.31;;;27.42;27.22
72677;BME280;60755;51.374;10.662;2022-07-18T10:00:58;98056.47;;;27.32;24.93
72677;BME280;60755;51.374;10.662;2022-07-18T10:03:25;98059.63;;;27.35;27.59
72677;BME280;60755;51.374;10.662;2022-07-18T10:05:52;98058.56;;;27.18;26.39
72677;BME280;60755;51.374;10.662;2022-07-18T10:08:21;98051.72;;;27.29;25.22
72677;BME280;60755;51.374;10.662;2022-07-18T10:10:51;98053.13;;;27.36;24.74
72677;BME280;60755;51.374;10.662;2022-07-18T10:13:20;98051.81;;;27.42;26.57
72677;BME280;60755;51.374;10.662;2022-07-18T10:15:48;98048.47;;;27.45;26.13
72677;BME280;60755;51.374;10.662;2022-07-18T10:18:17;98060.66;;;27.51;26.79
72677;BME280;60755;51.374;10.662;2022-07-18T10:20:45;98052.81;;;27.67;24.52
72677;BME280;60755;51.374;10.662;2022-07-18T10:23:16;98055.72;;;27.23;25.81
72677;BME280;60755;51.374;10.662;2022-07-18T10:25:43;98049.50;;;27.61;25.07
72677;BME280;60755;51.374;10.662;2022-07-18T10:28:13;98049.41;;;27.49;24.70
72677;BME280;60755;51.374;10.662;2022-07-18T10:30:44;98044.53;;;27.72;23.85
72677;BME280;60755;51.374;10.662;2022-07-18T10:33:37;98051.06;;;27.71;26.42
72677;BME280;60755;51.374;10.662;2022-07-18T10:36:05;98048.97;;;27.76;26.19
72677;BME280;60755;51.374;10.662;2022-07-18T10:38:35;98046.63;;;27.96;25.89
72677;BME280;60755;51.374;10.662;2022-07-18T10:41:07;98040.81;;;27.85;25.29
72677;BME280;60755;51.374;10.662;2022-07-18T10:43:37;98043.47;;;27.94;24.42
72677;BME280;60755;51.374;10.662;2022-07-18T10:46:05;98038.44;;;27.83;24.40
72677;BME280;60755;51.374;10.662;2022-07-18T10:48:58;98043.25;;;27.99;26.90
72677;BME280;60755;51.374;10.662;2022-07-18T10:51:29;98045.38;;;28.14;24.29
72677;BME280;60755;51.374;10.662;2022-07-18T10:53:58;98044.91;;;27.91;24.93
72677;BME280;60755;51.374;10.662;2022-07-18T10:57:03;98036.13;;;28.15;25.71
72677;BME280;60755;51.374;10.662;2022-07-18T10:59:32;98035.56;;;28.30;24.82
72677;BME280;60755;51.374;10.662;2022-07-18T11:02:00;98037.16;;;28.31;23.43
72677;BME280;60755;51.374;10.662;2022-07-18T11:04:30;98029.56;;;28.25;24.80
72677;BME280;60755;51.374;10.662;2022-07-18T11:07:03;98033.38;;;28.45;25.66
72677;BME280;60755;51.374;10.662;2022-07-18T11:09:36;98029.19;;;28.68;24.59
72677;BME280;60755;51.374;10.662;2022-07-18T11:12:23;98030.47;;;28.83;25.76
72677;BME280;60755;51.374;10.662;2022-07-18T11:15:06;98031.34;;;29.08;23.22
72677;BME280;60755;51.374;10.662;2022-07-18T11:17:56;98023.09;;;28.71;23.91
72677;BME280;60755;51.374;10.662;2022-07-18T11:20:25;98027.28;;;28.35;25.17
72677;BME280;60755;51.374;10.662;2022-07-18T11:22:53;98027.84;;;28.74;25.41
72677;BME280;60755;51.374;10.662;2022-07-18T11:25:24;98022.31;;;27.96;23.37
72677;BME280;60755;51.374;10.662;2022-07-18T11:27:51;98019.94;;;28.90;23.86
72677;BME280;60755;51.374;10.662;2022-07-18T11:30:20;98018.72;;;29.24;23.84
72677;BME280;60755;51.374;10.662;2022-07-18T11:32:47;98018.75;;;29.36;24.75
72677;BME280;60755;51.374;10.662;2022-07-18T11:35:14;98013.66;;;29.59;24.04
72677;BME280;60755;51.374;10.662;2022-07-18T11:37:46;98011.38;;;29.73;22.89
72677;BME280;60755;51.374;10.662;2022-07-18T11:40:14;98005.66;;;29.63;23.33
72677;BME280;60755;51.374;10.662;2022-07-18T11:42:41;98006.22;;;29.68;25.22
72677;BME280;60755;51.374;10.662;2022-07-18T11:45:10;97997.84;;;29.73;24.72
72677;BME280;60755;51.374;10.662;2022-07-18T11:47:45;97992.09;;;29.26;22.02
72677;BME280;60755;51.374;10.662;2022-07-18T11:50:11;97992.84;;;28.90;24.89
72677;BME280;60755;51.374;10.662;2022-07-18T11:52:38;98000.22;;;29.26;25.01
72677;BME280;60755;51.374;10.662;2022-07-18T11:55:05;97992.66;;;29.32;23.47
72677;BME280;60755;51.374;10.662;2022-07-18T11:57:33;97995.69;;;29.06;24.07
72677;BME280;60755;51.374;10.662;2022-07-18T12:00:00;97991.97;;;29.47;23.32
72677;BME280;60755;51.374;10.662;2022-07-18T12:02:40;97989.16;;;29.68;22.32
72677;BME280;60755;51.374;10.662;2022-07-18T12:05:07;97986.19;;;29.85;23.30
72677;BME280;60755;51.374;10.662;2022-07-18T12:07:34;97984.19;;;29.58;25.53
72677;BME280;60755;51.374;10.662;2022-07-18T12:10:14;97988.69;;;29.66;23.97
72677;BME280;60755;51.374;10.662;2022-07-18T12:12:41;97983.22;;;29.90;24.02
72677;BME280;60755;51.374;10.662;2022-07-18T12:15:08;97972.91;;;29.68;22.60
72677;BME280;60755;51.374;10.662;2022-07-18T12:17:45;97984.19;;;29.70;23.70
72677;BME280;60755;51.374;10.662;2022-07-18T12:20:15;97984.78;;;30.03;22.15
72677;BME280;60755;51.374;10.662;2022-07-18T12:23:07;97977.22;;;30.37;25.02
72677;BME280;60755;51.374;10.662;2022-07-18T12:25:54;97972.00;;;30.60;24.54
72677;BME280;60755;51.374;10.662;2022-07-18T12:28:24;97972.25;;;30.55;23.84
72677;BME280;60755;51.374;10.662;2022-07-18T12:30:51;97961.22;;;31.07;22.19
72677;BME280;60755;51.374;10.662;2022-07-18T12:33:19;97966.16;;;30.30;23.08
72677;BME280;60755;51.374;10.662;2022-07-18T12:35:54;97956.56;;;31.24;23.38
72677;BME280;60755;51.374;10.662;2022-07-18T12:38:21;97959.00;;;31.44;21.50
72677;BME280;60755;51.374;10.662;2022-07-18T12:40:49;97955.06;;;30.79;23.38
72677;BME280;60755;51.374;10.662;2022-07-18T12:43:22;97953.84;;;30.92;21.86
72677;BME280;60755;51.374;10.662;2022-07-18T12:45:49;97954.09;;;30.87;24.83
72677;BME280;60755;51.374;10.662;2022-07-18T12:48:16;97948.66;;;31.18;23.49
72677;BME280;60755;51.374;10.662;2022-07-18T12:50:44;97947.03;;;30.98;22.44
72677;BME280;60755;51.374;10.662;2022-07-18T12:53:11;97949.19;;;31.08;22.92
72677;BME280;60755;51.374;10.662;2022-07-18T12:55:38;97945.16;;;31.34;21.60